Time;durP1;ratioP1;P1;durP2;ratioP2;P2;SDS_P1;SDS_P2;PMS_P1;PMS_P2;Temp;Humidity;BMP_temperature;BMP_pressure;BME280_temperature;BME280_humidity;BME280_pressure;Samples;Min_cycle;Max_cycle;Signal;HPM_P1;HPM_P2
2023/04/02 00:00:59;;;;;;;2.67;0.70;;;9.20;81.10;;;12.33;51.28;96790.22;5060764;28;20048;-49
2023/04/02 00:03:40;;;;;;;0.50;0.50;;;9.10;81.40;;;12.29;51.26;96789.81;5058122;28;20405;-46
2023/04/02 00:06:31;;;;;;;0.77;0.70;;;9.10;81.50;;;12.26;51.30;96792.03;5052506;28;20033;-47
2023/04/02 00:09:21;;;;;;;1.07;0.70;;;9.10;81.50;;;12.27;51.12;96797.19;5062480;28;20045;-47
2023/04/02 00:11:54;;;;;;;0.93;0.60;;;9.10;81.60;;;12.26;51.18;96794.72;5060215;28;20044;-45
2023/04/02 00:14:33;;;;;;;2.90;0.73;;;9.00;81.30;;;12.25;51.11;96798.38;5055024;28;20120;-47
2023/04/02 00:17:04;;;;;;;0.97;0.60;;;9.00;81.30;;;12.24;51.48;96800.22;5062235;28;20044;-46
2023/04/02 00:19:59;;;;;;;0.70;0.50;;;9.00;81.50;;;12.22;51.10;96804.94;5061837;28;20417;-45
2023/04/02 00:22:32;;;;;;;1.23;0.80;;;9.00;81.90;;;12.16;51.23;96808.38;5052723;28;20044;-47
2023/04/02 00:25:11;;;;;;;1.10;0.75;;;9.00;81.60;;;12.18;51.13;96807.16;5062394;28;20037;-49
2023/04/02 00:27:39;;;;;;;0.43;0.43;;;9.00;81.70;;;12.20;51.03;96807.78;5061740;28;20045;-47
2023/04/02 00:30:07;;;;;;;0.70;0.60;;;9.00;81.70;;;12.23;51.20;96811.09;5059325;28;20071;-46
2023/04/02 00:32:35;;;;;;;1.27;0.63;;;9.00;81.70;;;12.23;50.77;96817.25;5037764;28;20056;-47
2023/04/02 00:35:24;;;;;;;0.60;0.53;;;9.00;81.60;;;12.16;51.11;96811.06;5061285;28;20040;-47
2023/04/02 00:37:53;;;;;;;1.57;0.67;;;9.00;81.60;;;12.21;50.91;96822.81;5059438;28;20052;-48
2023/04/02 00:40:30;;;;;;;2.03;0.90;;;9.00;81.90;;;12.19;51.07;96816.84;5057571;28;20422;-48
2023/04/02 00:43:03;;;;;;;1.53;0.73;;;8.90;82.00;;;12.18;51.24;96823.16;5061051;28;20042;-48
2023/04/02 00:45:35;;;;;;;2.03;1.10;;;8.90;82.10;;;12.19;51.29;96829.31;5066389;28;20047;-46
2023/04/02 00:48:21;;;;;;;1.30;0.73;;;9.00;81.90;;;12.14;51.16;96834.44;5045603;28;20040;-46
2023/04/02 00:50:51;;;;;;;1.50;1.00;;;8.90;82.40;;;12.17;51.27;96826.03;5063026;28;20041;-48
2023/04/02 00:53:27;;;;;;;1.93;0.77;;;8.90;82.20;;;12.18;50.95;96825.84;5064647;28;20048;-51
2023/04/02 00:55:57;;;;;;;1.43;1.10;;;8.90;82.30;;;12.17;51.32;96826.03;5062873;28;20063;-45
2023/04/02 00:58:35;;;;;;;4.23;1.47;;;8.90;82.40;;;12.17;51.24;96828.69;5041575;28;20425;-48
2023/04/02 01:01:03;;;;;;;1.27;0.70;;;9.00;82.70;;;12.18;51.27;96830.34;5061542;28;20055;-47
2023/04/02 01:03:34;;;;;;;0.73;0.50;;;9.00;82.10;;;12.20;51.42;96833.66;5048339;28;20497;-45
2023/04/02 01:06:10;;;;;;;0.60;0.60;;;9.00;82.10;;;12.18;51.27;96836.50;5062996;28;20044;-48
2023/04/02 01:08:57;;;;;;;1.00;0.50;;;8.90;82.50;;;12.23;51.23;96845.78;5042353;28;20046;-44
2023/04/02 01:12:00;;;;;;;1.73;0.63;;;9.00;82.30;;;12.27;51.00;96847.91;5055523;28;20044;-45
2023/04/02 01:15:06;;;;;;;0.97;0.60;;;9.00;81.70;;;12.32;50.81;96849.97;5057253;28;20433;-46
2023/04/02 01:18:08;;;;;;;0.90;0.73;;;9.10;81.80;;;12.27;51.16;96850.56;5058531;28;20092;-47
2023/04/02 01:21:09;;;;;;;4.57;0.90;;;9.00;81.80;;;12.28;51.20;96859.41;5037351;28;20056;-46
2023/04/02 01:24:01;;;;;;;0.70;0.70;;;9.00;82.10;;;12.23;51.15;96856.47;5056636;28;20048;-48
2023/04/02 01:27:01;;;;;;;1.00;0.97;;;9.00;82.30;;;12.20;51.56;96858.50;5055803;28;20078;-45
2023/04/02 01:29:45;;;;;;;0.87;0.80;;;9.00;82.80;;;12.24;51.30;96864.28;5057088;28;20045;-46
2023/04/02 01:32:17;;;;;;;0.83;0.60;;;9.00;82.60;;;12.21;51.55;96856.66;5053612;28;20041;-45
2023/04/02 01:34:48;;;;;;;1.67;0.63;;;9.00;82.70;;;12.21;51.54;96860.16;5042131;28;20058;-49
2023/04/02 01:37:48;;;;;;;1.20;0.67;;;9.00;82.90;;;12.20;51.82;96861.16;5048277;28;20040;-46
2023/04/02 01:40:38;;;;;;;1.00;0.73;;;9.00;83.00;;;12.24;51.21;96860.78;5038710;28;20045;-47
2023/04/02 01:43:32;;;;;;;1.13;0.60;;;9.00;83.20;;;12.19;51.67;96866.69;5071876;28;20037;-46
2023/04/02 01:46:28;;;;;;;2.03;0.90;;;9.00;83.10;;;12.17;51.73;96871.38;5062006;28;20052;-46
2023/04/02 01:48:59;;;;;;;0.90;0.80;;;8.90;83.60;;;12.19;51.60;96864.88;5062444;28;20080;-48
2023/04/02 01:51:35;;;;;;;0.50;0.50;;;8.90;83.70;;;12.19;51.49;96870.19;5048230;28;20059;-48
2023/04/02 01:54:06;;;;;;;1.03;0.83;;;8.90;84.00;;;12.20;51.65;96866.50;5061091;28;20513;-45
2023/04/02 01:56:34;;;;;;;1.23;0.67;;;8.90;84.00;;;12.20;51.73;96876.34;5040733;28;20053;-45
2023/04/02 01:59:04;;;;;;;1.73;0.90;;;8.90;84.10;;;12.18;51.65;96873.88;5062074;28;20505;-46
2023/04/02 02:01:47;;;;;;;2.40;1.20;;;8.90;84.20;;;12.21;51.56;96872.66;5056198;28;20052;-47
2023/04/02 02:04:16;;;;;;;2.50;1.10;;;8.90;84.30;;;12.17;51.79;96874.06;5032455;28;20053;-47
2023/04/02 02:06:45;;;;;;;1.80;1.10;;;8.90;84.30;;;12.16;51.52;96875.09;5056281;28;20050;-46
2023/04/02 02:09:26;;;;;;;1.23;0.93;;;8.90;84.50;;;12.14;52.00;96875.28;5052668;28;20063;-47
2023/04/02 02:11:57;;;;;;;2.00;0.90;;;8.90;84.40;;;12.08;52.04;96877.84;5045380;28;20049;-45
2023/04/02 02:14:28;;;;;;;1.33;1.23;;;8.80;85.00;;;12.07;51.93;96876.22;5046844;28;20048;-48
2023/04/02 02:17:01;;;;;;;1.13;0.87;;;8.80;85.10;;;12.09;52.14;96877.66;5062723;28;20218;-45
2023/04/02 02:19:41;;;;;;;1.92;0.82;;;8.90;85.10;;;12.10;52.19;96879.34;5060021;28;20093;-45
2023/04/02 02:22:20;;;;;;;2.20;0.70;;;8.80;85.10;;;12.08;52.21;96888.53;5064526;28;20051;-46
2023/04/02 02:24:48;;;;;;;0.57;0.57;;;8.80;85.10;;;12.06;51.97;96880.72;5064442;28;20079;-45
2023/04/02 02:27:22;;;;;;;0.87;0.43;;;8.80;84.90;;;12.08;51.68;96892.03;5059949;28;20049;-48
2023/04/02 02:30:37;;;;;;;2.00;0.80;;;8.80;84.90;;;12.05;52.23;96889.75;5061426;28;20052;-45
2023/04/02 02:33:29;;;;;;;1.03;0.70;;;8.80;85.00;;;12.10;52.03;96890.00;5043985;28;20505;-46
2023/04/02 02:36:35;;;;;;;1.53;0.73;;;8.90;85.00;;;12.10;51.47;96894.53;5046349;28;20049;-48
2023/04/02 02:39:30;;;;;;;2.00;0.70;;;8.90;84.60;;;12.11;52.05;96893.50;5061191;28;20044;-45
2023/04/02 02:42:30;;;;;;;0.68;0.63;;;8.90;84.30;;;12.15;52.13;96894.75;5061325;28;20052;-46
2023/04/02 02:45:01;;;;;;;0.60;0.60;;;9.00;84.30;;;12.19;51.81;96898.72;5044536;28;20048;-49
2023/04/02 02:47:33;;;;;;;1.03;0.60;;;9.00;83.90;;;12.23;51.50;96909.81;5061351;28;20037;-47
2023/04/02 02:50:09;;;;;;;;;;;9.00;83.80;;;12.24;51.79;96903.50;5045558;28;20064;-47
2023/04/02 02:52:38;;;;;;;0.57;0.57;;;9.00;83.60;;;12.23;51.70;96907.16;5055045;28;19928;-45
2023/04/02 02:55:16;;;;;;;0.90;0.60;;;8.90;84.10;;;12.23;51.67;96909.81;5059709;28;20045;-46
2023/04/02 02:58:06;;;;;;;0.80;0.60;;;8.90;84.20;;;12.24;51.84;96909.66;5060745;28;20057;-45
2023/04/02 03:00:41;;;;;;;;;;;9.00;84.10;;;12.27;51.72;96913.78;5063674;28;20049;-45
2023/04/02 03:03:22;;;;;;;0.83;0.70;;;9.00;84.00;;;12.27;51.71;96911.94;5042447;28;19921;-45
2023/04/02 03:06:01;;;;;;;0.83;0.73;;;9.00;84.20;;;12.23;51.68;96915.97;5042925;28;20042;-46
2023/04/02 03:08:39;;;;;;;1.23;0.77;;;9.00;84.50;;;12.24;51.38;96914.97;5062353;28;20056;-47
2023/04/02 03:11:32;;;;;;;1.00;0.80;;;9.00;84.30;;;12.25;51.56;96918.47;5044008;28;20052;-49
2023/04/02 03:14:47;;;;;;;0.57;0.50;;;9.00;84.00;;;12.19;51.55;96920.91;5044381;28;20056;-47
2023/04/02 03:17:31;;;;;;;1.20;0.87;;;9.00;84.00;;;12.24;51.60;96920.31;5051695;28;20041;-47
2023/04/02 03:20:51;;;;;;;1.20;0.57;;;9.00;84.40;;;12.19;51.89;96939.56;5044544;28;20049;-47
2023/04/02 03:23:31;;;;;;;0.60;0.60;;;9.00;84.60;;;12.22;51.96;96930.38;5033482;28;20506;-46
2023/04/02 03:26:19;;;;;;;0.50;0.50;;;9.00;84.70;;;12.18;51.62;96937.91;5058032;28;20506;-44
2023/04/02 03:29:21;;;;;;;3.23;0.90;;;9.00;84.70;;;12.16;52.21;96937.28;5045977;28;20052;-48
2023/04/02 03:32:21;;;;;;;3.00;0.67;;;9.00;84.50;;;12.19;52.07;96950.25;5015600;28;20540;-47
2023/04/02 03:35:00;;;;;;;0.47;0.47;;;9.00;84.80;;;12.22;51.77;96946.38;5039119;28;20053;-52
2023/04/02 03:37:45;;;;;;;0.60;0.50;;;9.00;84.50;;;12.23;51.96;96950.69;5046723;28;20044;-47
2023/04/02 03:40:33;;;;;;;1.98;0.70;;;9.00;84.60;;;12.28;51.55;96953.63;5042580;28;20047;-47
2023/04/02 03:43:19;;;;;;;0.87;0.57;;;9.10;84.40;;;12.30;51.93;96959.59;5051163;28;20049;-45
2023/04/02 03:45:55;;;;;;;0.50;0.50;;;9.10;84.40;;;12.30;52.09;96964.09;5062125;28;20059;-45
2023/04/02 03:48:42;;;;;;;3.50;0.77;;;9.10;84.70;;;12.25;52.03;96958.50;5047941;28;20045;-45
2023/04/02 03:51:48;;;;;;;1.13;0.90;;;9.10;85.50;;;12.23;52.38;96969.34;5044010;28;20052;-45
2023/04/02 03:54:16;;;;;;;0.73;0.67;;;9.00;86.10;;;12.24;52.56;96964.88;5061555;28;20162;-45
2023/04/02 03:56:46;;;;;;;2.43;0.90;;;9.00;86.50;;;12.17;52.86;96972.78;5063243;28;20417;-45
2023/04/02 03:59:36;;;;;;;1.43;0.77;;;8.90;87.10;;;12.11;53.24;96965.53;5057948;28;20037;-46
2023/04/02 04:02:37;;;;;;;1.20;0.80;;;8.90;88.80;;;12.08;52.91;96969.41;5048549;28;20521;-45
2023/04/02 04:05:17;;;;;;;1.37;0.73;;;8.90;90.20;;;12.15;52.75;96980.16;5059335;28;20394;-48
2023/04/02 04:07:45;;;;;;;1.13;0.90;;;8.90;90.60;;;12.15;52.95;96986.31;5039967;28;20065;-45
2023/04/02 04:10:21;;;;;;;1.07;0.80;;;8.90;90.90;;;12.14;53.50;96981.19;5044202;28;20503;-45
2023/04/02 04:12:51;;;;;;;0.60;0.60;;;8.90;91.40;;;12.12;53.45;96978.69;5062496;28;20424;-48
2023/04/02 04:15:21;;;;;;;1.67;1.20;;;8.80;91.50;;;12.12;53.13;96989.38;5050729;28;20045;-45
2023/04/02 04:18:09;;;;;;;1.30;0.83;;;8.80;91.70;;;12.14;53.34;96990.00;5058966;28;20112;-45
2023/04/02 04:20:59;;;;;;;0.73;0.73;;;8.90;92.00;;;12.17;53.21;96994.13;5040432;28;20065;-46
2023/04/02 04:23:39;;;;;;;2.90;0.70;;;8.90;91.90;;;12.20;52.92;96988.44;5051544;28;20041;-46
2023/04/02 04:26:29;;;;;;;0.83;0.50;;;9.00;91.60;;;12.19;53.22;97000.97;5043832;28;20049;-45
2023/04/02 04:29:44;;;;;;;1.70;0.97;;;8.90;91.30;;;12.19;52.84;97008.09;5045921;28;20041;-45
2023/04/02 04:32:30;;;;;;;1.57;1.47;;;8.90;91.40;;;12.24;52.94;97010.25;5045868;28;20053;-44
2023/04/02 04:35:36;;;;;;;1.60;0.70;;;9.00;91.10;;;12.18;53.11;97009.13;5060284;28;20059;-45
2023/04/02 04:38:15;;;;;;;0.57;0.57;;;8.90;91.00;;;12.19;53.23;97016.97;5044090;28;20057;-45
2023/04/02 04:40:55;;;;;;;0.77;0.77;;;8.90;91.10;;;12.18;53.14;97007.28;5044789;28;20048;-46
2023/04/02 04:43:49;;;;;;;0.57;0.57;;;8.90;91.00;;;12.15;52.74;97007.66;5034303;28;20052;-44
2023/04/02 04:47:04;;;;;;;0.67;0.60;;;8.90;91.60;;;12.15;52.96;97015.66;5062424;28;20036;-45
2023/04/02 04:49:45;;;;;;;0.50;0.50;;;8.90;91.70;;;12.18;53.28;97017.16;5051653;28;20044;-44
2023/04/02 04:52:31;;;;;;;1.00;0.63;;;8.90;91.70;;;12.18;53.07;97022.47;5060308;28;20048;-45
2023/04/02 04:55:00;;;;;;;1.90;0.87;;;8.90;91.80;;;12.16;53.22;97019.19;5044881;28;20071;-46
2023/04/02 04:57:38;;;;;;;1.67;0.60;;;8.90;91.80;;;12.14;53.23;97032.69;5021826;28;20056;-46
2023/04/02 05:00:24;;;;;;;0.60;0.60;;;8.90;91.80;;;12.13;53.07;97031.03;5059853;28;20101;-47
2023/04/02 05:03:21;;;;;;;1.30;0.60;;;8.90;91.70;;;12.11;53.09;97034.91;5044658;28;20056;-45
2023/04/02 05:05:49;;;;;;;2.17;0.60;;;8.80;91.90;;;12.11;53.20;97038.38;5037919;28;20045;-45
2023/04/02 05:08:29;;;;;;;0.60;0.60;;;8.90;91.90;;;12.13;53.37;97046.22;5060440;28;20036;-45
2023/04/02 05:11:03;;;;;;;1.80;0.70;;;8.90;91.70;;;12.16;53.19;97048.53;5044556;28;20048;-47
2023/04/02 05:13:53;;;;;;;1.30;0.83;;;8.90;91.80;;;12.17;53.24;97044.81;5037621;28;20042;-45
2023/04/02 05:16:40;;;;;;;0.50;0.50;;;8.90;91.10;;;12.19;52.98;97057.00;5033954;28;20075;-44
2023/04/02 05:19:18;;;;;;;0.60;0.60;;;8.90;91.50;;;12.20;53.03;97057.81;5042125;28;20060;-45
2023/04/02 05:21:58;;;;;;;0.87;0.60;;;8.90;91.20;;;12.19;53.39;97056.13;5061291;28;20412;-45
2023/04/02 05:24:56;;;;;;;0.40;0.30;;;8.90;91.00;;;12.20;52.81;97060.47;5049234;28;20203;-46
2023/04/02 05:27:53;;;;;;;0.93;0.40;;;8.90;90.80;;;12.20;53.09;97057.81;5063248;28;20049;-47
2023/04/02 05:30:24;;;;;;;1.43;0.70;;;9.00;90.80;;;12.23;52.82;97070.75;5063739;28;20037;-47
2023/04/02 05:33:03;;;;;;;0.70;0.70;;;9.00;91.00;;;12.24;53.11;97071.63;5065547;28;20037;-46
2023/04/02 05:35:35;;;;;;;0.83;0.70;;;9.00;90.80;;;12.21;53.20;97070.13;5042015;28;20429;-46
2023/04/02 05:38:05;;;;;;;1.47;0.70;;;9.00;90.80;;;12.16;53.11;97072.53;5061241;28;20060;-46
2023/04/02 05:40:43;;;;;;;0.63;0.50;;;8.90;90.80;;;12.16;53.34;97081.38;5065857;28;20044;-46
2023/04/02 05:43:17;;;;;;;0.63;0.53;;;8.90;90.70;;;12.15;53.13;97081.53;5045978;28;20056;-45
2023/04/02 05:45:54;;;;;;;0.70;0.60;;;8.90;90.90;;;12.18;53.35;97084.69;5041024;28;20053;-46
2023/04/02 05:48:34;;;;;;;1.10;0.60;;;8.90;91.10;;;12.15;53.21;97089.56;5041090;28;20532;-45
2023/04/02 05:51:08;;;;;;;0.50;0.50;;;8.90;90.90;;;12.14;53.00;97085.25;5073198;28;20042;-47
2023/04/02 05:53:40;;;;;;;1.15;0.82;;;8.90;91.00;;;12.14;53.30;97086.06;5047848;28;20051;-47
2023/04/02 05:56:26;;;;;;;1.00;0.67;;;8.90;91.10;;;12.14;53.34;97090.56;5046473;28;20060;-46
2023/04/02 05:59:25;;;;;;;1.93;0.97;;;8.90;91.10;;;12.11;53.18;97094.41;5041584;28;20045;-48
2023/04/02 06:02:10;;;;;;;2.47;0.97;;;8.80;91.50;;;12.15;53.30;97095.72;5056237;28;20063;-46
2023/04/02 06:04:56;;;;;;;1.20;0.80;;;8.90;91.60;;;12.17;52.79;97106.19;5053962;28;20060;-46
2023/04/02 06:07:45;;;;;;;0.57;0.57;;;8.90;91.40;;;12.13;53.38;97111.06;5059315;28;20506;-46
2023/04/02 06:10:24;;;;;;;0.97;0.80;;;8.90;91.60;;;12.23;53.13;97115.31;5044366;28;20047;-46
2023/04/02 06:13:07;;;;;;;1.30;0.80;;;9.00;91.60;;;12.29;53.05;97118.09;5047158;28;20059;-46
2023/04/02 06:15:39;;;;;;;2.27;0.90;;;9.00;91.20;;;12.34;53.18;97121.00;5054199;28;20052;-49
2023/04/02 06:18:16;;;;;;;0.63;0.60;;;9.10;91.20;;;12.40;52.92;97122.94;5061813;28;20053;-45
2023/04/02 06:20:45;;;;;;;1.13;0.70;;;9.10;90.70;;;12.46;52.54;97120.53;5063619;28;20055;-46
2023/04/02 06:23:52;;;;;;;0.83;0.70;;;9.20;90.10;;;12.46;53.24;97123.22;5062274;28;20509;-45
2023/04/02 06:26:32;;;;;;;0.60;0.60;;;9.20;89.80;;;12.50;52.67;97128.00;5046793;28;20429;-45
2023/04/02 06:29:17;;;;;;;1.67;1.27;;;9.20;89.40;;;12.51;52.83;97137.66;5063139;28;20051;-45
2023/04/02 06:31:59;;;;;;;1.13;0.80;;;9.30;89.80;;;12.52;52.60;97138.50;5042037;28;20041;-47
2023/04/02 06:34:30;;;;;;;0.73;0.70;;;9.30;89.10;;;12.53;52.41;97142.81;5035520;28;20542;-47
2023/04/02 06:37:20;;;;;;;1.48;1.20;;;9.30;89.00;;;12.49;52.86;97153.03;5057792;28;20240;-46
2023/04/02 06:39:49;;;;;;;1.83;0.63;;;9.20;89.30;;;12.46;52.85;97144.56;5040348;28;20426;-48
2023/04/02 06:42:33;;;;;;;2.47;0.80;;;9.20;89.70;;;12.41;53.11;97153.97;5058524;28;20517;-46
2023/04/02 06:45:28;;;;;;;1.33;1.00;;;9.20;89.90;;;12.49;53.32;97155.72;5060710;28;20064;-45
2023/04/02 06:48:25;;;;;;;1.77;0.90;;;9.20;90.20;;;12.46;53.23;97165.94;5061809;28;20048;-45
2023/04/02 06:51:10;;;;;;;1.13;0.80;;;9.20;90.80;;;12.41;53.42;97164.66;5061830;28;20044;-45
2023/04/02 06:53:50;;;;;;;1.40;1.00;;;9.20;90.70;;;12.39;53.16;97169.34;5031789;28;20045;-46
2023/04/02 06:56:50;;;;;;;2.17;1.30;;;9.20;91.20;;;12.26;53.86;97177.16;5067406;28;20049;-47
2023/04/02 06:59:25;;;;;;;2.53;1.03;;;9.10;91.60;;;12.25;53.73;97175.50;5058732;28;20045;-46
2023/04/02 07:02:31;;;;;;;1.40;1.10;;;9.10;92.60;;;11.89;54.67;97183.34;5058043;28;20072;-46
2023/04/02 07:05:08;;;;;;;1.87;1.30;;;9.00;93.30;;;12.04;54.58;97188.72;5054001;28;20064;-46
2023/04/02 07:07:39;;;;;;;2.97;1.10;;;8.90;95.10;;;12.10;54.57;97188.00;5051703;28;20049;-45
2023/04/02 07:10:11;;;;;;;1.27;1.10;;;9.00;95.80;;;12.23;54.79;97198.03;5058972;28;20445;-45
2023/04/02 07:12:39;;;;;;;1.93;1.60;;;9.10;96.50;;;12.28;54.36;97204.50;5061552;28;20056;-45
2023/04/02 07:15:13;;;;;;;3.90;1.30;;;9.10;95.80;;;12.40;54.35;97204.88;5043947;28;20055;-46
2023/04/02 07:17:42;;;;;;;1.17;0.90;;;9.20;95.90;;;12.40;54.29;97204.88;5038034;28;20049;-47
2023/04/02 07:20:32;;;;;;;3.17;1.77;;;9.30;95.00;;;12.32;54.43;97211.13;5056731;28;20045;-45
2023/04/02 07:23:05;;;;;;;1.40;1.00;;;9.20;95.40;;;12.32;54.53;97219.13;5060792;28;20053;-45
2023/04/02 07:25:32;;;;;;;2.00;1.30;;;9.20;96.00;;;12.36;54.47;97216.94;5059375;28;20520;-45
2023/04/02 07:28:00;;;;;;;2.80;1.10;;;9.20;96.90;;;12.47;54.35;97218.34;5059826;28;20049;-46
2023/04/02 07:30:28;;;;;;;1.47;1.07;;;9.30;96.60;;;12.60;54.26;97221.16;5062139;28;20041;-46
2023/04/02 07:32:55;;;;;;;2.10;1.40;;;9.50;96.30;;;12.67;54.04;97219.41;5060922;28;20048;-45
2023/04/02 07:35:23;;;;;;;1.17;1.00;;;9.50;96.30;;;12.63;54.16;97228.81;5059881;28;20049;-47
2023/04/02 07:37:51;;;;;;;2.33;1.60;;;9.40;95.30;;;12.63;53.99;97233.34;5059257;28;20049;-45
2023/04/02 07:40:21;;;;;;;1.20;1.07;;;9.40;96.30;;;12.61;54.06;97238.84;5059505;28;20053;-43
2023/04/02 07:42:49;;;;;;;1.57;1.10;;;9.50;95.70;;;12.67;53.98;97238.13;5059809;28;20048;-49
2023/04/02 07:45:17;;;;;;;1.73;0.90;;;9.50;95.50;;;12.70;54.19;97242.28;5060340;28;20052;-45
2023/04/02 07:47:44;;;;;;;0.57;0.57;;;9.60;94.80;;;12.68;54.22;97245.13;5058426;28;20056;-47
2023/04/02 07:50:12;;;;;;;1.33;1.07;;;9.60;94.90;;;12.64;54.23;97251.00;5058364;28;20056;-47
2023/04/02 07:52:41;;;;;;;1.80;1.10;;;9.50;94.80;;;12.77;54.11;97257.34;5062018;28;20414;-46
2023/04/02 07:55:14;;;;;;;1.23;0.97;;;9.70;94.80;;;12.94;53.48;97258.00;5061435;28;20044;-46
2023/04/02 07:57:57;;;;;;;1.58;0.95;;;9.80;93.70;;;13.03;53.63;97260.56;5058733;28;20041;-44
2023/04/02 08:00:27;;;;;;;0.77;0.60;;;9.90;92.70;;;13.07;53.29;97262.69;5061659;28;20055;-45
2023/04/02 08:02:55;;;;;;;1.53;0.80;;;9.90;93.20;;;13.12;53.26;97272.81;5061726;28;20405;-44
2023/04/02 08:05:23;;;;;;;1.17;0.93;;;10.00;92.00;;;13.22;53.12;97277.88;5058922;28;20059;-46
2023/04/02 08:07:55;;;;;;;2.13;1.83;;;10.10;91.90;;;13.21;52.84;97277.03;5057652;28;20045;-45
2023/04/02 08:10:23;;;;;;;1.83;1.17;;;10.10;90.10;;;13.19;52.75;97279.91;5058785;28;20052;-47
2023/04/02 08:12:51;;;;;;;2.30;0.90;;;10.00;90.10;;;13.16;52.74;97285.63;5061640;28;20044;-49
2023/04/02 08:15:18;;;;;;;1.10;1.00;;;10.00;90.30;;;13.15;53.15;97278.63;5060455;28;20047;-45
2023/04/02 08:17:46;;;;;;;1.37;0.93;;;10.00;90.70;;;13.22;53.07;97288.56;5059584;28;20425;-47
2023/04/02 08:20:17;;;;;;;4.53;1.27;;;10.10;90.90;;;13.14;52.94;97290.34;5060394;28;20419;-46
2023/04/02 08:22:46;;;;;;;0.77;0.77;;;10.00;90.10;;;13.24;52.96;97297.22;5062379;28;20055;-46
2023/04/02 08:25:14;;;;;;;1.53;0.90;;;10.10;90.70;;;13.30;52.79;97297.34;5061424;28;20049;-44
2023/04/02 08:27:42;;;;;;;1.43;1.07;;;10.20;90.00;;;13.35;52.65;97296.78;5057891;28;20048;-44
2023/04/02 08:30:12;;;;;;;0.80;0.80;;;10.30;88.80;;;13.32;52.43;97307.88;5059533;28;20068;-45
2023/04/02 08:32:40;;;;;;;1.00;0.80;;;10.20;88.10;;;13.43;52.63;97303.88;5062137;28;20047;-44
2023/04/02 08:35:11;;;;;;;0.60;0.60;;;10.30;88.80;;;13.44;52.31;97313.56;5062361;28;20437;-46
2023/04/02 08:37:38;;;;;;;0.80;0.80;;;10.30;87.80;;;13.47;52.10;97313.97;5059061;28;20052;-44
2023/04/02 08:40:14;;;;;;;1.77;0.80;;;10.40;86.70;;;13.56;52.14;97317.41;5059169;28;20045;-45
2023/04/02 08:43:02;;;;;;;3.00;1.67;;;10.40;87.30;;;13.61;52.29;97323.03;5052096;28;20059;-46
2023/04/02 08:45:49;;;;;;;3.03;1.20;;;10.50;87.20;;;13.79;52.25;97330.63;5061342;28;20290;-47
2023/04/02 08:48:17;;;;;;;1.23;0.83;;;10.70;87.40;;;13.78;51.31;97324.44;5059534;28;20045;-45
2023/04/02 08:50:45;;;;;;;2.47;1.30;;;10.60;85.40;;;13.76;51.47;97331.84;5057474;28;20045;-45
2023/04/02 08:53:24;;;;;;;0.70;0.70;;;10.60;84.80;;;13.80;51.74;97329.59;5059225;28;20497;-48
2023/04/02 08:56:32;;;;;;;2.00;1.10;;;10.70;85.70;;;13.94;51.97;97339.44;5044313;28;20041;-45
2023/04/02 08:59:18;;;;;;;1.00;0.90;;;10.90;84.60;;;14.04;51.37;97347.16;5053376;28;20053;-48
2023/04/02 09:02:02;;;;;;;0.40;0.40;;;10.90;83.80;;;14.10;51.16;97346.38;5057983;28;20049;-44
2023/04/02 09:04:32;;;;;;;0.77;0.57;;;11.00;83.40;;;14.24;51.10;97350.00;5048812;28;20048;-44
2023/04/02 09:06:59;;;;;;;1.40;0.77;;;11.10;82.50;;;14.24;50.83;97354.53;5060148;28;20048;-46
2023/04/02 09:09:27;;;;;;;1.40;0.83;;;11.10;83.10;;;14.24;50.75;97363.41;5066397;28;20044;-46
2023/04/02 09:12:04;;;;;;;0.47;0.47;;;11.10;80.40;;;14.07;50.23;97370.00;5060870;28;20048;-46
2023/04/02 09:15:21;;;;;;;0.57;0.57;;;10.80;79.80;;;13.85;50.17;97366.50;5062578;28;20036;-52
2023/04/02 09:17:59;;;;;;;1.23;1.13;;;10.70;79.70;;;13.95;50.43;97362.47;5053996;28;20056;-46
2023/04/02 09:20:28;;;;;;;1.30;1.20;;;10.70;81.50;;;13.59;50.33;97363.31;5045692;28;20053;-46
2023/04/02 09:22:56;;;;;;;1.17;0.90;;;10.50;79.60;;;13.65;50.23;97369.78;5041302;28;20058;-47
2023/04/02 09:25:27;;;;;;;0.80;0.80;;;10.50;80.10;;;13.67;50.33;97374.94;5062935;28;20052;-48
2023/04/02 09:28:01;;;;;;;0.70;0.70;;;10.50;80.70;;;13.75;50.32;97375.66;5065869;28;20421;-46
2023/04/02 09:30:50;;;;;;;0.77;0.60;;;10.60;80.20;;;13.79;50.43;97379.59;5039244;28;20053;-48
2023/04/02 09:33:18;;;;;;;0.50;0.50;;;10.70;80.80;;;13.96;50.31;97382.88;5038349;28;20038;-45
2023/04/02 09:35:48;;;;;;;1.40;0.90;;;10.80;80.20;;;14.01;50.12;97381.50;5041508;28;20041;-44
2023/04/02 09:38:30;;;;;;;0.87;0.87;;;10.90;78.60;;;13.99;49.93;97390.53;5042924;28;20041;-48
2023/04/02 09:41:02;;;;;;;1.27;1.03;;;10.80;79.20;;;14.06;50.15;97395.97;5041812;28;20055;-45
2023/04/02 09:43:36;;;;;;;1.00;0.90;;;10.90;79.30;;;14.05;50.18;97402.31;5040739;28;20052;-46
2023/04/02 09:46:24;;;;;;;0.77;0.77;;;10.90;79.30;;;14.08;49.91;97401.13;5040157;28;20056;-46
2023/04/02 09:49:02;;;;;;;0.67;0.60;;;10.90;78.20;;;14.06;49.93;97401.31;5044572;28;20058;-48
2023/04/02 09:51:33;;;;;;;1.70;1.07;;;10.90;78.30;;;14.09;50.05;97408.13;5039499;28;20044;-48
2023/04/02 09:54:12;;;;;;;2.00;0.83;;;11.00;78.90;;;14.21;50.09;97409.31;5039031;28;20056;-49
2023/04/02 09:56:56;;;;;;;1.63;1.00;;;11.10;78.50;;;14.33;49.37;97415.00;5039219;28;20498;-46
2023/04/02 09:59:24;;;;;;;0.73;0.73;;;11.20;77.40;;;14.40;49.09;97418.53;5042594;28;20076;-45
2023/04/02 10:01:52;;;;;;;0.80;0.67;;;11.30;77.60;;;14.43;49.20;97410.13;5036340;28;20553;-45
2023/04/02 10:04:43;;;;;;;1.20;1.10;;;11.20;77.40;;;14.52;49.58;97416.19;5039939;28;20045;-49
2023/04/02 10:07:41;;;;;;;1.50;0.75;;;11.40;77.90;;;14.56;49.09;97425.50;5041124;28;20044;-46
2023/04/02 10:10:30;;;;;;;1.30;0.90;;;11.40;77.40;;;14.74;49.41;97425.91;5037931;28;20907;-45
2023/04/02 10:13:01;;;;;;;0.60;0.60;;;11.60;77.40;;;14.82;48.69;97426.78;5040270;28;20037;-46
2023/04/02 10:15:42;;;;;;;1.53;0.80;;;11.70;76.20;;;14.82;48.53;97426.78;5044039;28;20580;-45
2023/04/02 10:18:52;;;;;;;1.17;1.05;;;11.60;75.50;;;14.88;48.88;97434.88;5036935;28;20479;-45
2023/04/02 10:21:36;;;;;;;5.22;3.60;;;11.70;75.70;;;14.93;47.66;97440.50;5037645;28;20422;-47
2023/04/02 10:24:15;;;;;;;7.88;4.55;;;11.80;72.70;;;14.90;47.38;97442.72;5039897;28;20045;-44
2023/04/02 10:27:01;;;;;;;1.50;1.13;;;11.70;72.50;;;14.90;47.49;97442.72;5044543;28;20395;-45
2023/04/02 10:30:17;;;;;;;1.30;1.00;;;11.70;73.20;;;14.94;47.41;97433.28;5044507;28;21213;-46
2023/04/02 10:32:55;;;;;;;1.38;0.95;;;11.80;72.10;;;15.08;47.74;97437.72;5010304;28;20045;-46
2023/04/02 10:35:44;;;;;;;1.33;0.80;;;11.90;73.10;;;15.11;47.36;97439.19;5045130;28;20052;-48
2023/04/02 10:38:42;;;;;;;1.35;0.90;;;12.00;72.20;;;15.14;47.27;97446.81;5047904;28;20512;-47
2023/04/02 10:41:32;;;;;;;1.00;0.90;;;11.90;71.70;;;15.26;47.54;97450.66;5046410;28;20048;-45
2023/04/02 10:44:38;;;;;;;1.02;0.70;;;12.10;72.30;;;15.33;47.55;97450.69;5046037;28;20502;-44
2023/04/02 10:47:32;;;;;;;1.00;0.90;;;12.20;71.00;;;15.42;47.42;97443.31;5045884;28;20053;-48
2023/04/02 10:50:23;;;;;;;0.80;0.80;;;12.30;71.60;;;15.38;47.10;97458.97;5047137;28;20053;-45
2023/04/02 10:53:16;;;;;;;1.63;1.00;;;12.30;71.50;;;15.39;47.46;97462.47;5045349;28;20486;-48
2023/04/02 10:55:57;;;;;;;1.10;1.00;;;12.30;70.90;;;15.44;46.65;97462.72;5054009;28;20057;-47
2023/04/02 10:58:28;;;;;;;0.95;0.70;;;12.30;70.90;;;15.30;46.59;97469.84;5043380;28;20048;-46
2023/04/02 11:01:06;;;;;;;0.75;0.75;;;12.10;70.80;;;15.30;46.78;97475.22;5045152;28;20059;-46
2023/04/02 11:03:52;;;;;;;1.08;0.80;;;12.10;71.80;;;15.28;46.90;97472.72;5045760;28;20045;-45
2023/04/02 11:06:27;;;;;;;1.05;0.85;;;12.10;71.10;;;15.36;46.77;97477.13;5039052;28;20432;-45
2023/04/02 11:09:03;;;;;;;2.45;0.90;;;12.10;71.30;;;15.37;46.67;97478.75;5039449;28;20420;-44
2023/04/02 11:11:49;;;;;;;2.03;0.75;;;12.20;70.70;;;15.44;46.77;97479.66;5031831;28;20049;-44
2023/04/02 11:14:23;;;;;;;1.80;0.90;;;12.40;70.30;;;15.61;46.47;97479.34;5037470;28;20045;-46
2023/04/02 11:16:53;;;;;;;0.98;0.75;;;12.50;70.50;;;15.74;46.02;97482.97;5039799;28;20520;-45
2023/04/02 11:19:28;;;;;;;1.27;0.90;;;12.60;67.10;;;15.75;46.08;97478.41;5039029;28;20064;-44
2023/04/02 11:22:03;;;;;;;1.17;1.05;;;12.60;69.70;;;15.84;46.04;97485.28;5038689;28;20053;-44